Decoded Metar for KMLB (MELBOURNE in FL, USA) (IATA:MLB) | Meteo·Mobile Aviation Weather
aviador You're here:

KMLB Decoded Metar

MELBOURNE in FL, USA
Report Time2018-09-24 06:53:00
UTC Time2018-09-24 07:52:10
Flight Rules vfr VFR
Wind080° at 05 kt
W.Decomp.*RWY 09: 5.0 kt HW 0.3 kt LCW
RWY 05: 4.0 kt HW 3.0 kt RCW
W.Rank080° ranks 6
Current wind is below 080° avg. (8.6)
Visibility9999 m
Phenomena:N/A
Clouds:Scattered 025 Hf
Expected CloudBase > 1,600 ft AGL from Temp-Dew spread
CeilingNone
Temp27°C (ISA +12)
Dew Point23°C (79% RH)
Heat Index29.6°C
QNH1016 hPa
Density Alt1,696 ft
Elevation36 ft
Report Wrong Elevation
Raw Report
METAR KMLB 240653Z AUTO 08005KT 10SM SCT025 27/23 A2999 RMK AO2 SLP156
T02670228=

Extra information for KMLB:More info

Metar Taf Metar & Taf Last 4 Metars F.Rules Stats Wind Profile Meteogram Temp Stats Airport Information Weather charts Add Link Nearby VenuesMetar ALERT Operation Metar Decoded Social comments

AIRNAV info for KMLB